| time (UTC) | temp C | wind direction | speed KPH | gust KPH | rain 1hr cm | rain 24hr cm | rain mn cm | humidity % | barometer mb |
| 20260902211526 | 35 | 266 | 4.8 | 11.3 | 0.00 | 0.00 | 0.00 | 61 | 1018.5 |
| 20260902210028 | 35 | 204 | 3.2 | 9.7 | 0.00 | 0.00 | 0.00 | 60 | 1018.7 |
| 20260902204536 | 35 | 195 | 4.8 | 14.5 | 0.00 | 0.00 | 0.00 | 60 | 1018.8 |
| 20260902203023 | 35 | 300 | 3.2 | 11.3 | 0.00 | 0.00 | 0.00 | 63 | 1018.8 |
| 20260902201528 | 35 | 227 | 1.6 | 11.3 | 0.00 | 0.00 | 0.00 | 62 | 1018.9 |
| 20260902200020 | 35 | 252 | 4.8 | 12.9 | 0.00 | 0.00 | 0.00 | 60 | 1019.0 |
| 20260902194517 | 35 | 258 | 4.8 | 11.3 | 0.00 | 0.00 | 0.00 | 62 | 1019.1 |
| 20260902193015 | 35 | 278 | 6.4 | 12.9 | 0.00 | 0.00 | 0.00 | 61 | 1019.3 |
| 20260902191519 | 34 | 258 | 4.8 | 11.3 | 0.00 | 0.00 | 0.00 | 62 | 1019.5 |
| 20260902190014 | 34 | 307 | 3.2 | 17.7 | 0.00 | 0.00 | 0.00 | 63 | 1019.6 |
| 20260902184507 | 34 | 223 | 1.6 | 9.7 | 0.00 | 0.00 | 0.00 | 62 | 1019.9 |
| 20260902183006 | 34 | 271 | 6.4 | 19.3 | 0.00 | 0.00 | 0.00 | 62 | 1019.9 |
| 20260902181507 | 34 | 229 | 3.2 | 11.3 | 0.00 | 0.00 | 0.00 | 63 | 1019.9 |
| 20260902174559 | 33 | 228 | 4.8 | 11.3 | 0.00 | 0.00 | 0.00 | 63 | 1020.1 |
| 20260902173056 | 33 | 285 | 3.2 | 11.3 | 0.00 | 0.00 | 0.00 | 64 | 1020.3 |
| 20260902171602 | 33 | 273 | 4.8 | 16.1 | 0.00 | 0.00 | 0.00 | 64 | 1020.6 |
| 20260902170052 | 33 | 269 | 6.4 | 14.5 | 0.00 | 0.00 | 0.00 | 65 | 1020.7 |
| 20260902164556 | 32 | 302 | 3.2 | 14.5 | 0.00 | 0.00 | 0.00 | 70 | 1020.7 |
| 20260902163048 | 32 | 307 | 3.2 | 11.3 | 0.00 | 0.00 | 0.00 | 68 | 1021.0 |
| 20260902161551 | 32 | 213 | 1.6 | 12.9 | 0.00 | 0.00 | 0.00 | 69 | 1021.0 |
| 20260902160040 | 32 | 195 | 3.2 | 12.9 | 0.00 | 0.00 | 0.00 | 68 | 1021.0 |
| 20260902154543 | 32 | 200 | 3.2 | 8.0 | 0.00 | 0.00 | 0.00 | 70 | 1020.9 |
| 20260902153038 | 31 | 206 | 3.2 | 9.7 | 0.00 | 0.00 | 0.00 | 72 | 1021.0 |
| 20260902151531 | 31 | 243 | 3.2 | 8.0 | 0.00 | 0.00 | 0.00 | 74 | 1021.0 |
| 20260902150028 | 31 | 224 | 0.0 | 0.0 | 0.00 | 0.00 | 0.00 | 75 | 1021.0 |
| 20260902144523 | 30 | 212 | 0.0 | 0.0 | 0.00 | 0.00 | 0.00 | 78 | 1021.2 |
| 20260902143021 | 29 | 219 | 0.0 | 0.0 | 0.00 | 0.00 | 0.00 | 79 | 1021.3 |
| 20260902141523 | 28 | 309 | 0.0 | 0.0 | 0.00 | 0.00 | 0.00 | 83 | 1021.2 |
| 20260902140014 | 27 | 259 | 0.0 | 0.0 | 0.00 | 0.00 | 0.00 | 83 | 1021.3 |
| 20260902134506 | 26 | 252 | 0.0 | 0.0 | 0.00 | 0.00 | 0.00 | 86 | 1021.3 |
| 20260902133002 | 25 | 224 | 0.0 | 0.0 | 0.00 | 0.00 | 0.00 | 87 | 1021.5 |
| 20260902131559 | 25 | 236 | 0.0 | 0.0 | 0.00 | 0.00 | 0.00 | 90 | 1021.4 |
| 20260902130057 | 23 | 223 | 0.0 | 0.0 | 0.00 | 0.00 | 0.00 | 95 | 1021.4 |
| 20260902124603 | 22 | 229 | 0.0 | 0.0 | 0.00 | 0.00 | 0.00 | 97 | 1021.5 |
| 20260902123055 | 22 | 215 | 0.0 | 0.0 | 0.00 | 0.00 | 0.00 | 98 | 1021.4 |
| 20260902121557 | 22 | 205 | 0.0 | 0.0 | 0.00 | 0.00 | 0.00 | 98 | 1021.1 |
| 20260902120052 | 21 | 205 | 0.0 | 0.0 | 0.00 | 0.00 | 0.00 | 98 | 1021.1 |
| 20260902114550 | 21 | 205 | 0.0 | 0.0 | 0.00 | 0.00 | 0.00 | 98 | 1020.9 |
| 20260902113049 | 21 | 205 | 0.0 | 0.0 | 0.00 | 0.00 | 0.00 | 98 | 1020.8 |
| 20260902111547 | 21 | 205 | 0.0 | 0.0 | 0.00 | 0.00 | 0.00 | 98 | 1020.7 |
| 20260902110047 | 21 | 205 | 0.0 | 0.0 | 0.00 | 0.00 | 0.00 | 98 | 1020.6 |
| 20260902104548 | 21 | 205 | 0.0 | 0.0 | 0.00 | 0.00 | 0.00 | 98 | 1020.6 |
| 20260902103047 | 21 | 205 | 0.0 | 0.0 | 0.00 | 0.00 | 0.00 | 97 | 1020.7 |
| 20260902101547 | 21 | 205 | 0.0 | 0.0 | 0.00 | 0.00 | 0.00 | 97 | 1020.6 |
| 20260902100042 | 21 | 205 | 0.0 | 0.0 | 0.00 | 0.00 | 0.00 | 97 | 1020.6 |
| 20260902094541 | 21 | 205 | 0.0 | 0.0 | 0.00 | 0.00 | 0.00 | 97 | 1020.6 |
| 20260902093046 | 21 | 205 | 0.0 | 0.0 | 0.00 | 0.00 | 0.00 | 97 | 1020.5 |
| 20260902091544 | 21 | 205 | 0.0 | 0.0 | 0.00 | 0.00 | 0.00 | 96 | 1020.4 |
| 20260902090037 | 22 | 205 | 0.0 | 0.0 | 0.00 | 0.00 | 0.00 | 96 | 1020.5 |
| 20260902084547 | 22 | 205 | 0.0 | 0.0 | 0.00 | 0.00 | 0.00 | 96 | 1020.3 |
| 20260902083041 | 22 | 205 | 0.0 | 0.0 | 0.00 | 0.00 | 0.00 | 96 | 1019.9 |
| 20260902081532 | 22 | 205 | 0.0 | 0.0 | 0.00 | 0.00 | 0.00 | 96 | 1019.9 |
| 20260902080032 | 22 | 205 | 0.0 | 0.0 | 0.00 | 0.00 | 0.00 | 96 | 1019.8 |
| 20260902074530 | 22 | 205 | 0.0 | 0.0 | 0.00 | 0.00 | 0.00 | 95 | 1019.8 |
| 20260902073030 | 22 | 205 | 0.0 | 0.0 | 0.00 | 0.00 | 0.00 | 95 | 1019.7 |
| 20260902071535 | 22 | 205 | 0.0 | 0.0 | 0.00 | 0.00 | 0.00 | 95 | 1019.8 |
| 20260902070028 | 22 | 205 | 0.0 | 0.0 | 0.00 | 0.00 | 0.00 | 94 | 1019.8 |
| 20260902064526 | 22 | 205 | 0.0 | 0.0 | 0.00 | 0.00 | 0.00 | 94 | 1019.8 |
| 20260902063029 | 23 | 205 | 0.0 | 0.0 | 0.00 | 0.00 | 0.00 | 94 | 1019.8 |
| 20260902061539 | 23 | 205 | 0.0 | 0.0 | 0.00 | 0.00 | 0.00 | 93 | 1019.9 |
| 20260902060023 | 23 | 205 | 0.0 | 0.0 | 0.00 | 0.00 | 0.00 | 93 | 1019.8 |
| 20260902054519 | 23 | 205 | 0.0 | 0.0 | 0.00 | 0.00 | 0.00 | 92 | 1019.8 |
| 20260902053020 | 23 | 205 | 0.0 | 0.0 | 0.00 | 0.00 | 0.00 | 92 | 1019.9 |
| 20260902051519 | 23 | 205 | 0.0 | 0.0 | 0.00 | 0.00 | 0.00 | 92 | 1019.9 |
| 20260902050017 | 23 | 205 | 0.0 | 0.0 | 0.00 | 0.00 | 0.00 | 92 | 1019.8 |
| 20260902044515 | 23 | 205 | 0.0 | 0.0 | 0.00 | 0.00 | 0.00 | 91 | 1019.9 |
| 20260902043014 | 23 | 205 | 0.0 | 0.0 | 0.00 | 0.00 | 0.00 | 91 | 1019.8 |
| 20260902041513 | 23 | 205 | 0.0 | 0.0 | 0.00 | 0.00 | 0.00 | 91 | 1019.9 |
| 20260902040010 | 24 | 205 | 0.0 | 0.0 | 0.00 | 0.00 | 0.00 | 90 | 1020.0 |
| 20260902034508 | 24 | 205 | 0.0 | 0.0 | 0.00 | 0.00 | 0.00 | 89 | 1019.8 |
| 20260902033006 | 24 | 205 | 0.0 | 0.0 | 0.00 | 0.00 | 0.00 | 90 | 1019.8 |
| 20260902031505 | 24 | 205 | 0.0 | 0.0 | 0.00 | 0.00 | 0.00 | 89 | 1019.8 |
| 20260902030004 | 25 | 205 | 0.0 | 0.0 | 0.00 | 0.00 | 0.00 | 88 | 1019.9 |
| 20260902024505 | 25 | 205 | 0.0 | 0.0 | 0.00 | 0.00 | 0.00 | 88 | 1019.8 |
| 20260902023003 | 25 | 205 | 0.0 | 0.0 | 0.00 | 0.00 | 0.00 | 88 | 1019.8 |
| 20260902021504 | 25 | 205 | 0.0 | 0.0 | 0.00 | 0.00 | 0.00 | 88 | 1019.9 |
| 20260902020002 | 25 | 205 | 0.0 | 0.0 | 0.00 | 0.00 | 0.00 | 87 | 1019.6 |
| 20260902014501 | 25 | 205 | 0.0 | 0.0 | 0.00 | 0.00 | 0.00 | 87 | 1019.7 |
| 20260902013101 | 25 | 205 | 0.0 | 0.0 | 0.00 | 0.00 | 0.00 | 87 | 1019.5 |
| 20260902011600 | 26 | 205 | 0.0 | 0.0 | 0.00 | 0.00 | 0.00 | 87 | 1019.4 |
| 20260902010100 | 26 | 205 | 0.0 | 0.0 | 0.00 | 0.00 | 0.00 | 86 | 1019.3 |
| 20260902004559 | 26 | 205 | 0.0 | 0.0 | 0.00 | 0.00 | 0.00 | 85 | 1019.2 |
| 20260902003058 | 26 | 205 | 0.0 | 0.0 | 0.00 | 0.00 | 0.00 | 85 | 1019.2 |
| 20260902001558 | 27 | 205 | 0.0 | 0.0 | 0.00 | 0.00 | 0.00 | 85 | 1019.1 |
| 20260902000101 | 27 | 205 | 0.0 | 0.0 | 0.00 | 0.00 | 0.00 | 83 | 1019.3 |
| 20260901234556 | 28 | 205 | 0.0 | 0.0 | 0.00 | 0.00 | 0.00 | 81 | 1019.3 |
| 20260901233056 | 30 | 205 | 0.0 | 0.0 | 0.00 | 0.00 | 0.00 | 77 | 1019.4 |
| 20260901231556 | 32 | 205 | 0.0 | 1.6 | 0.00 | 0.00 | 0.00 | 73 | 1019.4 |
| 20260901230055 | 33 | 207 | 0.0 | 3.2 | 0.00 | 0.00 | 0.00 | 66 | 1019.5 |
| 20260901224553 | 34 | 233 | 0.0 | 6.4 | 0.00 | 0.00 | 0.00 | 63 | 1019.5 |
| 20260901223051 | 35 | 224 | 0.0 | 4.8 | 0.00 | 0.00 | 0.00 | 66 | 1019.4 |
| 20260901221550 | 35 | 214 | 1.6 | 8.0 | 0.00 | 0.00 | 0.00 | 61 | 1019.4 |
| 20260901220049 | 35 | 241 | 4.8 | 9.7 | 0.00 | 0.00 | 0.00 | 59 | 1019.4 |
| 20260901214548 | 35 | 210 | 3.2 | 12.9 | 0.00 | 0.00 | 0.00 | 58 | 1019.3 |
| 20260901213109 | 35 | 239 | 3.2 | 9.7 | 0.00 | 0.00 | 0.00 | 59 | 1019.3 |